Date,TemperatureHighF,TemperatureAvgF,TemperatureLowF,DewpointHighF,DewpointAvgF,DewpointLowF,HumidityHigh,HumidityAvg,HumidityLow,PressureMaxIn,PressureMinIn,WindSpeedMaxMPH,WindSpeedAvgMPH,GustSpeedMaxMPH,PrecipitationSumIn
2013-2-1,64.8,48.3,37.8,42.5,37.4,31.7,95,71,31,30.35,30.24,16,1,16,0.00
2013-2-2,70.1,52.7,37.3,50.6,43.7,35.5,95,74,44,30.26,30.11,19,2,19,0.00
2013-2-3,69.1,53.5,40.6,51.1,38.7,23.0,98,65,18,30.23,30.05,16,2,16,0.00
2013-2-4,59.2,50.3,39.8,52.7,45.1,36.4,96,83,65,30.05,29.88,6,0,7,0.07
2013-2-5,72.5,59.8,51.4,61.8,56.3,50.3,99,89,63,29.97,29.87,7,0,9,0.01
2013-2-6,69.9,57.5,49.1,62.0,55.4,48.3,99,93,69,30.05,29.91,16,1,16,0.25
2013-2-7,70.3,59.8,52.5,59.5,56.8,51.1,99,90,65,29.92,29.78,18,2,20,0.87
2013-2-8,67.1,57.1,51.3,61.2,53.3,48.0,99,88,71,30.12,29.91,19,3,19,0.01
2013-2-9,65.3,56.3,46.8,57.8,50.7,42.8,93,82,67,30.17,29.96,17,2,17,0.00
2013-2-10,76.8,66.9,60.4,70.2,63.6,56.9,98,89,71,29.97,29.79,28,5,28,0.52
2013-2-11,62.9,56.2,52.8,62.6,55.9,52.1,99,99,98,30.11,29.89,14,3,28,1.91
2013-2-12,64.7,57.3,52.8,64.4,57.0,52.5,100,99,97,29.98,29.67,15,2,16,0.30
2013-2-13,57.2,49.8,39.6,52.5,44.6,38.0,99,83,59,30.03,29.82,17,4,17,0.06
2013-2-14,62.3,46.9,35.6,44.8,39.4,34.3,98,78,42,30.11,30.00,9,1,9,0.00
2013-2-15,66.8,51.3,35.6,49.3,39.6,34.5,98,69,34,30.14,30.03,18,3,20,0.01
2013-2-16,53.1,45.5,33.4,41.2,30.1,18.8,89,58,28,30.27,30.12,25,5,25,0.00
2013-2-17,63.9,46.2,31.2,40.4,33.5,26.7,92,65,35,30.29,30.13,15,2,15,0.00
2013-2-18,66.9,55.1,39.8,61.8,50.2,36.8,97,84,62,30.16,29.88,21,3,21,1.16
2013-2-19,66.6,57.8,48.3,60.6,43.7,29.1,99,64,27,30.19,29.89,21,6,21,0.10
2013-2-20,63.2,51.8,41.3,41.9,35.1,28.0,83,55,28,30.19,29.96,13,2,18,0.00
2013-2-21,74.4,63.4,51.7,71.1,56.4,38.1,99,78,59,29.95,29.67,29,6,29,0.20
2013-2-22,68.6,63.6,59.5,64.1,56.4,51.5,98,78,61,29.95,29.79,16,2,16,0.06
2013-2-23,67.1,58.8,51.9,55.4,52.7,47.0,93,81,64,29.91,29.81,14,3,14,0.00
2013-2-24,74.2,58.1,44.1,60.5,50.9,42.0,96,79,47,29.93,29.67,26,2,26,0.58
2013-2-25,67.8,63.8,57.5,66.3,61.2,37.8,99,92,49,29.68,29.36,26,3,30,0.71
2013-2-26,59.8,51.4,43.9,43.3,39.4,35.0,93,65,48,29.87,29.52,27,6,30,0.00
2013-2-27,70.4,55.1,40.5,49.3,41.7,37.0,98,66,31,30.00,29.87,21,3,22,0.01
2013-2-28,53.8,47.0,40.2,39.7,35.1,29.8,87,65,40,30.12,30.00,12,2,16,0.00